Detall de PIREP

Printer-friendly versionPDF version

[2009/10/17 07:42:00]
Flight IATA:CT2115
Pilot Number:041
Company ICAO:CAT
Aircraft Type:AT72/F
PAX:50
Departing Airport: LEVD
Destination Airport: LEVC
Alternate Airport:LEAL
Online: VATSIM
Route:VLD DISKO A33 INDEG A33 MAGIN A33 HORTA A33 CJN A33 PRADO A33 CENTA1C
Flight Level:FL180
No Slew and time accel
No pause
Crash detect
Detect pilot in Cockpit between each 30 and 45 minutes
07:42 Zero fuel Weight: 42381 Lbs, Fuel Weight: 4413 Lbs
07:42 VATSIM:LEVD 170730Z 06007KT CAVOK 06/M07 Q1022
07:42 VATSIM:LEVC 170730Z 29002KT 9999 FEW025 12/11 Q1019 NOSIG
07:42 VOICE CATALONIAN
07:44 Parking Brakes off
07:53 Take-off
07:53 Take off Weight: 46682 Lbs
07:53 Wind: 060º @ 006 Knots Heading: 043º
07:53 POS N41º 42´ 19´´ W004º 51´ 12´´
07:53 Flaps:1 at 131 Knots
07:53 Gear Up: 132 Knots
07:53 Flaps:0 at 163 Knots
07:56 Gear Down: 240 Knots
07:56 Gear Up: 235 Knots
08:0
5 TOC
08:05 Fuel Weight: 3750 Lb
08:08 Wind:342º@012 Knots Heading: 115º Ground Speed: 300 Knots Altitude 18228 ft
08:23 Wind:340º@014 Knots Heading: 115º Ground Speed: 301 Knots Altitude 18218 ft
08:25 TOD
08:25 Fuel Weight: 3123 Lb
08:38 Wind:356º@008 Knots Heading: 115º Ground Speed: 248 Knots Altitude 6003 ft
08:53 Wind:018º@005 Knots Heading: 046º Ground Speed: 214 Knots Altitude 3497 ft
08:56 Flaps:1 at 185 Knots
08:57 Gear Down: 174 Knots
08:57 Flaps:2 at 149 Knots
09:00 TouchDown:Rate -159 ft/min Speed: 103 Knots
09:00 VATSIM:LEVC 170830Z 34003KT 280V010 CAVOK 15/11 Q1019 NOSIG
09:00 Land
09:00 Wind:313º@002 Knots
09:00 Heading: 296º
09:00 Flight Duration: 01:07
09:00 Landing Weight: 44821 Lbs
09:00 POS N39º 29´ 19´´ W000º 28´ 48´´
09:02 Parking brakes on
09:02 Block to Block Duration: 01:18
09:02 Final Fuel: 2422 Lbls
09:02 Spent Fuel: 1990 L
bls
09:02 Flight Length: 293 NM
09:02 TOD Land Length: 140 NM

Exportar CSV

Powered by Drupal - Modified by Danger4k